Time;durP1;ratioP1;P1;durP2;ratioP2;P2;SDS_P1;SDS_P2;PMS_P1;PMS_P2;Temp;Humidity;BMP_temperature;BMP_pressure;BME280_temperature;BME280_humidity;BME280_pressure;Samples;Min_cycle;Max_cycle;Signal;HPM_P1;HPM_P2
2023/07/07 00:01:52;;;;;;;8.15;4.30;;;14.80;99.90;;;;;;5077776;28;20044;-58
2023/07/07 00:04:20;;;;;;;9.02;5.18;;;14.80;99.90;;;;;;5076289;28;20307;-57
2023/07/07 00:06:46;;;;;;;8.02;4.43;;;14.70;99.90;;;;;;5078331;28;20109;-58
2023/07/07 00:09:11;;;;;;;11.48;6.20;;;14.70;99.90;;;;;;5080105;28;20113;-57
2023/07/07 00:11:37;;;;;;;8.75;4.30;;;14.70;99.90;;;;;;5080501;28;20602;-58
2023/07/07 00:14:03;;;;;;;9.32;5.38;;;14.70;99.90;;;;;;5080903;28;20094;-58
2023/07/07 00:16:29;;;;;;;8.88;4.95;;;14.70;99.90;;;;;;5080032;28;20311;-58
2023/07/07 00:18:56;;;;;;;9.80;5.03;;;14.70;99.90;;;;;;5080624;28;20048;-58
2023/07/07 00:21:25;;;;;;;8.85;4.70;;;14.60;99.90;;;;;;5079650;28;20078;-57
2023/07/07 00:23:53;;;;;;;9.60;4.85;;;14.50;99.90;;;;;;5079568;28;20048;-58
2023/07/07 00:26:19;;;;;;;8.45;4.72;;;14.50;99.90;;;;;;5079756;28;20044;-58
2023/07/07 00:28:45;;;;;;;9.50;4.97;;;14.50;99.90;;;;;;5080464;28;20036;-58
2023/07/07 00:31:10;;;;;;;7.72;4.32;;;14.50;99.90;;;;;;5080657;28;20075;-58
2023/07/07 00:33:36;;;;;;;9.40;4.32;;;14.50;99.90;;;;;;5079926;28;20048;-58
2023/07/07 00:36:02;;;;;;;8.73;4.57;;;14.50;99.90;;;;;;5080148;28;20045;-58
2023/07/07 00:38:28;;;;;;;10.90;4.68;;;14.50;99.90;;;;;;5078828;28;20048;-58
2023/07/07 00:40:53;;;;;;;8.18;4.50;;;14.40;99.90;;;;;;5080361;28;20040;-59
2023/07/07 00:43:20;;;;;;;8.27;4.43;;;14.40;99.90;;;;;;5079572;28;20104;-59
2023/07/07 00:45:46;;;;;;;8.38;5.00;;;14.40;99.90;;;;;;5078660;28;20055;-58
2023/07/07 00:48:17;;;;;;;7.85;4.45;;;14.20;99.90;;;;;;5080362;28;20048;-60
2023/07/07 00:50:49;;;;;;;8.40;4.80;;;14.30;99.90;;;;;;5079496;28;20045;-58
2023/07/07 00:53:15;;;;;;;12.15;5.07;;;14.30;99.90;;;;;;5080278;28;20109;-58
2023/07/07 00:55:45;;;;;;;8.43;4.53;;;14.20;99.90;;;;;;5078617;28;20052;-58
2023/07/07 00:58:14;;;;;;;10.35;5.25;;;14.30;99.90;;;;;;5080450;28;20050;-58
2023/07/07 01:00:44;;;;;;;9.75;4.20;;;14.30;99.90;;;;;;5079421;28;20036;-58
2023/07/07 01:03:14;;;;;;;8.13;4.45;;;14.20;99.90;;;;;;5079783;28;20075;-58
2023/07/07 01:05:43;;;;;;;11.98;5.75;;;14.20;99.90;;;;;;5079645;28;20048;-57
2023/07/07 01:08:09;;;;;;;8.30;4.10;;;14.10;99.90;;;;;;5078686;28;20034;-58
2023/07/07 01:10:34;;;;;;;9.43;4.05;;;14.10;99.90;;;;;;5079960;28;20044;-57
2023/07/07 01:13:03;;;;;;;8.80;4.40;;;14.10;99.90;;;;;;5078674;28;20045;-57
2023/07/07 01:15:35;;;;;;;9.40;4.32;;;14.10;99.90;;;;;;5079888;28;20060;-59
2023/07/07 01:18:19;;;;;;;7.10;3.85;;;14.00;99.90;;;;;;5050668;28;20045;-57
2023/07/07 01:21:29;;;;;;;9.50;3.83;;;14.00;99.90;;;;;;5068955;28;20037;-58
2023/07/07 01:24:36;;;;;;;10.38;3.95;;;13.90;99.90;;;;;;5042346;28;20551;-58
2023/07/07 01:27:14;;;;;;;8.88;4.07;;;13.90;99.90;;;;;;5058188;28;20108;-57
2023/07/07 01:30:12;;;;;;;7.45;3.60;;;13.90;99.90;;;;;;5058188;28;20056;-57
2023/07/07 01:32:39;;;;;;;10.23;3.88;;;13.90;99.90;;;;;;5059333;28;20048;-58
2023/07/07 01:35:14;;;;;;;7.95;3.95;;;13.90;99.90;;;;;;5058986;28;20037;-58
2023/07/07 01:37:40;;;;;;;8.98;4.32;;;13.90;99.90;;;;;;5058563;28;20037;-58
2023/07/07 01:40:07;;;;;;;9.75;4.22;;;13.90;99.90;;;;;;5059297;28;20134;-58
2023/07/07 01:42:43;;;;;;;7.88;3.70;;;13.90;99.90;;;;;;5058287;28;20090;-58
2023/07/07 01:45:18;;;;;;;10.65;3.80;;;13.80;99.90;;;;;;5057856;28;20049;-58
2023/07/07 01:47:52;;;;;;;9.38;3.70;;;13.90;99.90;;;;;;5058304;28;20045;-58
2023/07/07 01:50:23;;;;;;;8.27;3.78;;;13.80;99.90;;;;;;5058632;28;20111;-58
2023/07/07 01:52:57;;;;;;;8.15;3.85;;;13.90;99.90;;;;;;5059169;28;20049;-57
2023/07/07 01:55:27;;;;;;;9.23;3.88;;;13.80;99.90;;;;;;5077859;28;20047;-58
2023/07/07 01:57:58;;;;;;;8.02;3.70;;;13.80;99.90;;;;;;5079108;28;20048;-58
2023/07/07 02:00:26;;;;;;;8.52;4.07;;;13.70;99.90;;;;;;5077926;28;20072;-58
2023/07/07 02:02:53;;;;;;;10.27;4.05;;;13.70;99.90;;;;;;5078586;28;20043;-58
2023/07/07 02:05:18;;;;;;;7.57;3.78;;;13.60;99.90;;;;;;5078253;28;20140;-58
2023/07/07 02:07:44;;;;;;;7.28;4.18;;;13.60;99.90;;;;;;5077923;28;20036;-58
2023/07/07 02:10:10;;;;;;;8.65;3.55;;;13.60;99.90;;;;;;5078789;28;20520;-58
2023/07/07 02:12:36;;;;;;;9.15;3.92;;;13.60;99.90;;;;;;5077289;28;20068;-58
2023/07/07 02:15:02;;;;;;;7.10;4.07;;;13.50;99.90;;;;;;5077661;28;20057;-58
2023/07/07 02:17:29;;;;;;;7.82;3.72;;;13.60;99.90;;;;;;5077500;28;20468;-58
2023/07/07 02:19:55;;;;;;;7.70;3.85;;;13.50;99.90;;;;;;5078665;28;20040;-58
2023/07/07 02:22:21;;;;;;;8.50;3.78;;;13.70;99.90;;;;;;5078207;28;20100;-58
2023/07/07 02:24:47;;;;;;;7.88;3.70;;;13.60;99.90;;;;;;5077916;28;20071;-58
2023/07/07 02:27:12;;;;;;;7.47;4.10;;;13.60;99.90;;;;;;5078551;28;20045;-58
2023/07/07 02:29:38;;;;;;;7.38;3.88;;;13.60;99.90;;;;;;5077054;28;20048;-58
2023/07/07 02:32:05;;;;;;;7.93;3.70;;;13.60;99.90;;;;;;5078445;28;20044;-57
2023/07/07 02:34:31;;;;;;;9.13;3.60;;;13.60;99.90;;;;;;5077297;28;20055;-58
2023/07/07 02:36:57;;;;;;;8.40;4.38;;;13.50;99.90;;;;;;5077969;28;20095;-58
2023/07/07 02:39:23;;;;;;;9.00;3.95;;;13.60;99.90;;;;;;5077841;28;20056;-58
2023/07/07 02:41:48;;;;;;;8.52;3.83;;;13.60;99.90;;;;;;5077663;28;20045;-57
2023/07/07 02:44:16;;;;;;;7.50;4.10;;;13.70;99.90;;;;;;5078366;28;20048;-58
2023/07/07 02:46:41;;;;;;;9.90;4.28;;;13.60;99.90;;;;;;5077025;28;20412;-58
2023/07/07 02:49:07;;;;;;;8.98;4.43;;;13.70;99.90;;;;;;5078547;28;20041;-58
2023/07/07 02:51:33;;;;;;;7.78;4.28;;;13.70;99.90;;;;;;5076754;28;20067;-58
2023/07/07 02:53:59;;;;;;;9.93;5.05;;;13.60;99.90;;;;;;5078056;28;20036;-57
2023/07/07 02:56:24;;;;;;;10.00;4.90;;;13.60;99.90;;;;;;5077420;28;20043;-58
2023/07/07 02:58:50;;;;;;;9.80;5.13;;;13.60;99.90;;;;;;5076375;28;20044;-58
2023/07/07 03:01:19;;;;;;;8.88;4.90;;;13.60;99.90;;;;;;5077998;28;20045;-58
2023/07/07 03:03:48;;;;;;;12.57;5.95;;;13.50;99.90;;;;;;5076887;28;20051;-58
2023/07/07 03:06:17;;;;;;;9.45;5.43;;;13.50;99.90;;;;;;5078251;28;20094;-58
2023/07/07 03:08:43;;;;;;;9.98;5.68;;;13.50;99.90;;;;;;5076683;28;20103;-58
2023/07/07 03:11:14;;;;;;;9.13;5.63;;;13.60;99.90;;;;;;5077859;28;20037;-58
2023/07/07 03:13:40;;;;;;;10.88;5.70;;;13.50;99.90;;;;;;5077877;28;20089;-58
2023/07/07 03:16:20;;;;;;;12.52;6.00;;;13.50;99.90;;;;;;5077275;28;20075;-58
2023/07/07 03:18:48;;;;;;;11.70;6.60;;;13.50;99.90;;;;;;5077878;28;20114;-58
2023/07/07 03:21:16;;;;;;;11.60;6.93;;;13.50;99.90;;;;;;5076673;28;20442;-58
2023/07/07 03:23:42;;;;;;;10.38;6.07;;;13.50;99.90;;;;;;5078410;28;20032;-58
2023/07/07 03:26:12;;;;;;;11.55;6.75;;;13.50;99.90;;;;;;5076199;28;20106;-58
2023/07/07 03:28:38;;;;;;;10.77;6.55;;;13.50;99.90;;;;;;5077540;28;20049;-57
2023/07/07 03:31:17;;;;;;;13.80;7.22;;;13.50;99.90;;;;;;5077862;28;20047;-59
2023/07/07 03:33:45;;;;;;;12.35;7.50;;;13.50;99.90;;;;;;5076864;28;20053;-58
2023/07/07 03:36:12;;;;;;;13.75;7.82;;;13.50;99.90;;;;;;5078146;28;20049;-58
2023/07/07 03:38:39;;;;;;;12.30;7.85;;;13.50;99.90;;;;;;5076264;28;20576;-57
2023/07/07 03:41:08;;;;;;;13.70;8.48;;;13.50;99.90;;;;;;5078141;28;20130;-58
2023/07/07 03:43:35;;;;;;;14.13;8.18;;;13.50;99.90;;;;;;5080934;28;20048;-58
2023/07/07 03:46:01;;;;;;;16.15;8.73;;;13.50;99.90;;;;;;5080990;28;20060;-58
2023/07/07 03:48:28;;;;;;;12.27;8.30;;;13.60;99.90;;;;;;5081461;28;20045;-59
2023/07/07 03:51:02;;;;;;;13.13;8.57;;;13.50;99.90;;;;;;5080730;28;20071;-58
2023/07/07 03:53:29;;;;;;;14.65;8.55;;;13.60;99.90;;;;;;5081112;28;20135;-58
2023/07/07 03:55:55;;;;;;;15.65;9.35;;;13.60;99.90;;;;;;5080133;28;20089;-58
2023/07/07 03:58:21;;;;;;;16.05;8.98;;;13.60;99.90;;;;;;5081295;28;20040;-58
2023/07/07 04:00:48;;;;;;;17.63;9.20;;;13.60;99.90;;;;;;5080840;28;20074;-58
2023/07/07 04:03:14;;;;;;;15.20;9.52;;;13.70;99.90;;;;;;5080281;28;20488;-58
2023/07/07 04:05:45;;;;;;;13.93;9.32;;;13.70;99.90;;;;;;5081179;28;20052;-57
2023/07/07 04:08:10;;;;;;;13.52;9.45;;;13.70;99.90;;;;;;5078522;28;20100;-58
2023/07/07 04:10:37;;;;;;;13.43;9.18;;;13.80;99.90;;;;;;5081161;28;20051;-58
2023/07/07 04:13:03;;;;;;;15.50;9.65;;;13.80;99.90;;;;;;5079631;28;20053;-58
2023/07/07 04:15:29;;;;;;;15.70;9.82;;;13.70;99.90;;;;;;5080753;28;20036;-58
2023/07/07 04:17:54;;;;;;;16.15;10.48;;;13.80;99.90;;;;;;5079866;28;20083;-58
2023/07/07 04:20:20;;;;;;;15.80;9.82;;;13.90;99.90;;;;;;5080094;28;20040;-58
2023/07/07 04:22:46;;;;;;;15.05;10.25;;;13.90;99.90;;;;;;5080891;28;20040;-58
2023/07/07 04:25:16;;;;;;;17.38;10.52;;;14.00;99.90;;;;;;5079501;28;20096;-57
2023/07/07 04:27:42;;;;;;;16.80;10.52;;;14.00;99.90;;;;;;5080703;28;20044;-58
2023/07/07 04:30:09;;;;;;;15.90;10.63;;;14.10;99.90;;;;;;5079234;28;20048;-58
2023/07/07 04:32:36;;;;;;;18.90;10.45;;;14.10;99.90;;;;;;5080738;28;20041;-58
2023/07/07 04:35:03;;;;;;;16.65;11.10;;;14.20;99.90;;;;;;5080410;28;20407;-57
2023/07/07 04:37:32;;;;;;;16.13;10.55;;;14.20;99.90;;;;;;5079849;28;20078;-58
2023/07/07 04:39:58;;;;;;;15.85;10.55;;;14.20;99.90;;;;;;5080558;28;20033;-58
2023/07/07 04:42:24;;;;;;;17.92;11.52;;;14.30;99.90;;;;;;5079269;28;20070;-57
2023/07/07 04:44:49;;;;;;;18.67;11.40;;;14.40;99.90;;;;;;5080787;28;20048;-58
2023/07/07 04:47:15;;;;;;;17.67;11.43;;;14.40;99.90;;;;;;5079033;28;20135;-58
2023/07/07 04:49:41;;;;;;;14.35;10.52;;;14.40;99.90;;;;;;5080405;28;20075;-58
2023/07/07 04:52:07;;;;;;;17.30;11.18;;;14.50;99.90;;;;;;5079560;28;20075;-58
2023/07/07 04:54:35;;;;;;;16.90;11.00;;;14.60;99.90;;;;;;5079751;28;20046;-58
2023/07/07 04:57:03;;;;;;;16.50;10.05;;;14.70;99.90;;;;;;5080264;28;20407;-59
2023/07/07 04:59:30;;;;;;;16.95;10.82;;;14.80;99.90;;;;;;5077576;28;20048;-58
2023/07/07 05:01:56;;;;;;;16.27;10.85;;;14.90;99.90;;;;;;5080641;28;20083;-59
2023/07/07 05:04:22;;;;;;;16.33;11.60;;;15.00;99.90;;;;;;5078618;28;20040;-58
2023/07/07 05:06:48;;;;;;;15.10;10.52;;;15.00;99.90;;;;;;5079706;28;20044;-58
2023/07/07 05:09:15;;;;;;;15.43;11.35;;;15.20;99.90;;;;;;5079363;28;20064;-58
2023/07/07 05:11:41;;;;;;;15.98;11.80;;;15.30;99.90;;;;;;5079360;28;20065;-58
2023/07/07 05:14:07;;;;;;;14.93;10.77;;;15.40;99.90;;;;;;5079838;28;20041;-58
2023/07/07 05:16:36;;;;;;;16.30;12.02;;;15.40;99.90;;;;;;5078825;28;20044;-58
2023/07/07 05:19:01;;;;;;;16.20;11.48;;;15.50;99.90;;;;;;5079892;28;20071;-58
2023/07/07 05:21:27;;;;;;;18.10;11.98;;;15.70;99.90;;;;;;5078401;28;20041;-58
2023/07/07 05:23:54;;;;;;;17.33;11.30;;;15.70;99.90;;;;;;5079667;28;20041;-58
2023/07/07 05:26:21;;;;;;;18.05;11.82;;;15.70;99.90;;;;;;5079056;28;20085;-58
2023/07/07 05:28:47;;;;;;;17.70;11.57;;;15.90;99.90;;;;;;5079137;28;20036;-58
2023/07/07 05:31:13;;;;;;;19.67;12.23;;;15.90;99.90;;;;;;5079707;28;20041;-58
2023/07/07 05:33:39;;;;;;;16.67;12.18;;;15.90;99.90;;;;;;5078544;28;20071;-58
2023/07/07 05:36:08;;;;;;;16.25;10.90;;;16.10;99.90;;;;;;5079648;28;20036;-56
2023/07/07 05:38:35;;;;;;;16.52;10.65;;;16.30;99.90;;;;;;5077560;28;20062;-58
2023/07/07 05:41:01;;;;;;;18.75;11.98;;;16.40;99.90;;;;;;5079517;28;20055;-57
2023/07/07 05:43:26;;;;;;;15.45;10.93;;;16.50;99.90;;;;;;5078210;28;20040;-57
2023/07/07 05:46:04;;;;;;;15.80;11.32;;;16.60;99.90;;;;;;5073840;28;20055;-57
2023/07/07 05:48:30;;;;;;;14.13;10.55;;;16.70;99.90;;;;;;5066163;28;20048;-57
2023/07/07 05:51:00;;;;;;;17.85;11.25;;;16.80;99.90;;;;;;5073554;28;20067;-58
2023/07/07 05:53:27;;;;;;;14.38;10.23;;;16.80;99.90;;;;;;5074045;28;20170;-59
2023/07/07 05:56:07;;;;;;;18.90;11.10;;;17.00;99.90;;;;;;5073641;28;20048;-58
2023/07/07 05:58:33;;;;;;;14.30;10.13;;;17.10;99.90;;;;;;5074564;28;20114;-57
2023/07/07 06:00:58;;;;;;;14.80;10.52;;;17.20;99.90;;;;;;5075057;28;20516;-57
2023/07/07 06:03:24;;;;;;;17.83;11.00;;;17.30;99.90;;;;;;5074063;28;20052;-58
2023/07/07 06:05:50;;;;;;;16.15;9.98;;;17.40;99.90;;;;;;5074721;28;20037;-58
2023/07/07 06:08:15;;;;;;;15.25;9.55;;;17.40;99.90;;;;;;5073089;28;20051;-58
2023/07/07 06:10:44;;;;;;;13.35;10.02;;;17.60;99.90;;;;;;5074799;28;20060;-58
2023/07/07 06:13:09;;;;;;;14.45;9.48;;;17.60;99.90;;;;;;5073688;28;20128;-57
2023/07/07 06:15:35;;;;;;;16.55;10.30;;;17.70;99.90;;;;;;5074549;28;20130;-60
2023/07/07 06:18:00;;;;;;;15.98;9.52;;;17.80;99.90;;;;;;5074143;28;20074;-58
2023/07/07 06:20:26;;;;;;;12.88;9.50;;;17.90;99.90;;;;;;5073336;28;20532;-58
2023/07/07 06:22:54;;;;;;;15.40;9.10;;;17.90;99.90;;;;;;5074619;28;20068;-58
2023/07/07 06:25:20;;;;;;;14.27;9.30;;;18.10;99.90;;;;;;5073181;28;20045;-58
2023/07/07 06:27:46;;;;;;;14.15;10.25;;;18.20;99.90;;;;;;5074820;28;20479;-58
2023/07/07 06:30:11;;;;;;;16.30;9.95;;;18.30;99.90;;;;;;5073517;28;20081;-58
2023/07/07 06:32:37;;;;;;;16.27;9.70;;;18.40;99.90;;;;;;5068161;28;20041;-57
2023/07/07 06:35:03;;;;;;;12.35;8.75;;;18.50;99.90;;;;;;5064176;28;20105;-57
2023/07/07 06:37:29;;;;;;;12.70;8.32;;;18.60;99.90;;;;;;5062454;28;20142;-57
2023/07/07 06:39:55;;;;;;;14.40;8.30;;;18.70;99.90;;;;;;5053307;28;20045;-58
2023/07/07 06:42:21;;;;;;;12.80;8.27;;;18.70;99.90;;;;;;5053216;28;20052;-57
2023/07/07 06:44:47;;;;;;;11.98;8.10;;;18.80;99.90;;;;;;5054135;28;20041;-58
2023/07/07 06:47:15;;;;;;;12.98;8.27;;;18.90;99.90;;;;;;5052626;28;20064;-57
2023/07/07 06:49:40;;;;;;;14.02;7.90;;;18.90;99.90;;;;;;5069827;28;20111;-58
2023/07/07 06:52:06;;;;;;;12.75;8.38;;;19.10;99.90;;;;;;5074120;28;20597;-58
2023/07/07 06:54:32;;;;;;;11.85;7.70;;;19.10;99.90;;;;;;5073686;28;20044;-57
2023/07/07 06:56:58;;;;;;;11.68;7.55;;;19.20;99.90;;;;;;5074189;28;20048;-58
2023/07/07 06:59:25;;;;;;;11.25;6.75;;;19.20;99.90;;;;;;5072725;28;20085;-57
2023/07/07 07:01:50;;;;;;;12.60;6.80;;;19.20;99.90;;;;;;5074328;28;20060;-58
2023/07/07 07:04:16;;;;;;;10.90;6.65;;;19.30;99.90;;;;;;5073229;28;20045;-58
2023/07/07 07:06:42;;;;;;;12.32;7.03;;;19.30;99.90;;;;;;5073801;28;20135;-58
2023/07/07 07:09:09;;;;;;;13.13;6.70;;;19.30;99.90;;;;;;5073020;28;20056;-58
2023/07/07 07:11:34;;;;;;;12.27;7.10;;;19.40;99.90;;;;;;5073448;28;20052;-58
2023/07/07 07:14:00;;;;;;;11.18;6.25;;;19.50;99.90;;;;;;5072621;28;20064;-58
2023/07/07 07:16:26;;;;;;;12.27;7.20;;;19.50;99.90;;;;;;5075725;28;20496;-56
2023/07/07 07:18:52;;;;;;;12.60;6.43;;;19.70;99.90;;;;;;5071328;28;20056;-58
2023/07/07 07:21:17;;;;;;;10.70;6.00;;;19.80;99.90;;;;;;5066822;28;20475;-58
2023/07/07 07:23:43;;;;;;;9.25;5.57;;;19.90;99.90;;;;;;5065684;28;20045;-58
2023/07/07 07:26:09;;;;;;;9.10;6.00;;;20.00;99.90;;;;;;5060378;28;20049;-58
2023/07/07 07:28:34;;;;;;;9.70;5.65;;;20.00;99.90;;;;;;5061597;28;20045;-57
2023/07/07 07:31:00;;;;;;;10.77;5.60;;;20.10;99.90;;;;;;5061504;28;20045;-58
2023/07/07 07:33:26;;;;;;;10.65;5.80;;;20.00;99.90;;;;;;5067597;28;20036;-58
2023/07/07 07:35:51;;;;;;;11.10;5.63;;;20.00;99.90;;;;;;5079460;28;20044;-58
2023/07/07 07:38:20;;;;;;;8.93;5.72;;;20.10;99.90;;;;;;5079352;28;20041;-58
2023/07/07 07:40:46;;;;;;;11.23;5.93;;;20.30;99.90;;;;;;5080708;28;20032;-58
2023/07/07 07:43:12;;;;;;;11.10;4.72;;;20.30;99.90;;;;;;5080219;28;20063;-57
2023/07/07 07:45:38;;;;;;;10.07;5.25;;;20.50;99.90;;;;;;5081002;28;20063;-58
2023/07/07 07:48:05;;;;;;;10.35;4.47;;;20.50;99.90;;;;;;5077838;28;20036;-57
2023/07/07 07:50:31;;;;;;;9.40;4.60;;;20.60;99.90;;;;;;5069669;28;20048;-58
2023/07/07 07:52:57;;;;;;;8.45;3.80;;;20.60;99.90;;;;;;5069205;28;20049;-57
2023/07/07 07:55:22;;;;;;;8.95;4.15;;;20.80;99.90;;;;;;5079799;28;20036;-58
2023/07/07 07:57:48;;;;;;;8.10;3.85;;;20.90;99.90;;;;;;5081401;28;20040;-58
2023/07/07 08:00:14;;;;;;;8.27;3.92;;;20.90;99.90;;;;;;5079950;28;20044;-58
2023/07/07 08:02:40;;;;;;;7.80;3.38;;;21.00;99.90;;;;;;5081258;28;20041;-58
2023/07/07 08:05:07;;;;;;;8.35;3.67;;;21.10;99.90;;;;;;5081129;28;20051;-57
2023/07/07 08:07:33;;;;;;;8.05;3.78;;;21.10;99.90;;;;;;5080108;28;20040;-58
2023/07/07 08:09:59;;;;;;;7.80;3.45;;;21.10;99.90;;;;;;5081338;28;20044;-57
2023/07/07 08:12:24;;;;;;;8.73;3.60;;;21.20;99.90;;;;;;5079558;28;20086;-58
2023/07/07 08:14:50;;;;;;;8.32;3.45;;;21.40;98.60;;;;;;5081259;28;20053;-58
2023/07/07 08:17:17;;;;;;;7.38;3.00;;;21.30;99.90;;;;;;5079808;28;20044;-58
2023/07/07 08:19:44;;;;;;;7.82;3.75;;;21.40;99.90;;;;;;5080936;28;20040;-57
2023/07/07 08:22:19;;;;;;;9.73;3.92;;;21.40;99.90;;;;;;5080551;28;20037;-58
2023/07/07 08:24:53;;;;;;;7.20;3.75;;;21.50;99.20;;;;;;5080403;28;20041;-57
2023/07/07 08:27:21;;;;;;;7.35;3.03;;;21.60;92.00;;;;;;5079778;28;20072;-58
2023/07/07 08:29:46;;;;;;;7.53;3.70;;;21.80;94.80;;;;;;5079848;28;20091;-58
2023/07/07 08:32:18;;;;;;;7.28;3.55;;;21.90;95.70;;;;;;5081165;28;20423;-58
2023/07/07 08:34:43;;;;;;;8.27;2.97;;;22.00;95.20;;;;;;5080270;28;20571;-58
2023/07/07 08:37:10;;;;;;;6.75;2.90;;;22.20;91.60;;;;;;5080078;28;20525;-58
2023/07/07 08:39:36;;;;;;;6.90;3.20;;;22.20;85.70;;;;;;5080732;28;20040;-58
2023/07/07 08:42:05;;;;;;;7.38;2.70;;;22.10;84.70;;;;;;5079951;28;20048;-58
2023/07/07 08:44:35;;;;;;;6.90;3.20;;;22.30;84.40;;;;;;5080846;28;20044;-58
2023/07/07 08:47:07;;;;;;;9.38;3.70;;;22.20;71.00;;;;;;5079202;28;20051;-56
2023/07/07 08:49:42;;;;;;;5.97;2.67;;;22.30;78.90;;;;;;5080068;28;20070;-58
2023/07/07 08:52:07;;;;;;;6.40;2.60;;;22.40;77.10;;;;;;5079760;28;20530;-56
2023/07/07 08:55:15;;;;;;;8.63;3.13;;;22.60;81.10;;;;;;5079450;28;20112;-57
2023/07/07 08:57:50;;;;;;;7.68;2.60;;;22.40;70.40;;;;;;5056576;28;20049;-59
2023/07/07 09:00:46;;;;;;;7.18;2.70;;;22.50;68.70;;;;;;5061319;28;20048;-58
2023/07/07 09:03:14;;;;;;;6.55;2.47;;;22.70;69.50;;;;;;5079629;28;20052;-59
2023/07/07 09:06:01;;;;;;;6.30;3.10;;;22.80;75.20;;;;;;5080402;28;20045;-58
2023/07/07 09:08:46;;;;;;;6.75;2.53;;;22.70;67.70;;;;;;5078308;28;20048;-58
2023/07/07 09:11:44;;;;;;;7.45;3.40;;;23.00;61.00;;;;;;5079715;28;20062;-58
2023/07/07 09:14:11;;;;;;;6.57;2.40;;;23.00;54.10;;;;;;5080102;28;20057;-58
2023/07/07 09:16:40;;;;;;;6.85;2.30;;;23.10;57.90;;;;;;5078743;28;20056;-58
2023/07/07 09:19:17;;;;;;;8.23;2.50;;;23.10;48.40;;;;;;5080101;28;20045;-58
2023/07/07 09:21:57;;;;;;;5.82;2.45;;;23.20;34.20;;;;;;5078861;28;20102;-58
2023/07/07 09:24:35;;;;;;;5.97;2.25;;;23.20;37.10;;;;;;5079462;28;20052;-59
2023/07/07 09:27:15;;;;;;;6.22;2.40;;;23.30;35.10;;;;;;5079653;28;20044;-59
2023/07/07 09:29:41;;;;;;;5.68;2.22;;;23.30;34.40;;;;;;5078059;28;20036;-58
2023/07/07 09:32:10;;;;;;;6.15;2.30;;;23.40;35.20;;;;;;5079876;28;20041;-58
2023/07/07 09:34:36;;;;;;;6.80;2.38;;;23.50;34.10;;;;;;5078694;28;20048;-58
2023/07/07 09:37:21;;;;;;;6.50;2.30;;;23.60;33.70;;;;;;5078908;28;20044;-58
2023/07/07 09:40:02;;;;;;;6.38;2.58;;;23.50;28.40;;;;;;5078424;28;20040;-59
2023/07/07 09:42:52;;;;;;;6.87;2.20;;;23.50;27.80;;;;;;5078267;28;20580;-58
2023/07/07 09:45:47;;;;;;;5.20;2.05;;;23.60;28.90;;;;;;5079205;28;20048;-58
2023/07/07 09:48:41;;;;;;;6.95;2.28;;;23.80;32.30;;;;;;5078943;28;20053;-58
2023/07/07 09:51:42;;;;;;;6.82;2.22;;;24.00;33.70;;;;;;5077836;28;20052;-58
2023/07/07 09:54:13;;;;;;;6.95;2.50;;;24.00;28.20;;;;;;5078360;28;20052;-59
2023/07/07 09:56:49;;;;;;;5.95;2.30;;;24.10;29.30;;;;;;5078849;28;20042;-58
2023/07/07 09:59:19;;;;;;;6.57;3.00;;;24.00;33.20;;;;;;5076279;28;20072;-58
2023/07/07 10:01:59;;;;;;;6.97;2.63;;;24.00;32.60;;;;;;5079028;28;20045;-59
2023/07/07 10:04:44;;;;;;;6.30;2.30;;;24.10;32.70;;;;;;5077241;28;20040;-58
2023/07/07 10:07:12;;;;;;;6.30;2.22;;;24.30;34.30;;;;;;5077980;28;20156;-59
2023/07/07 10:09:38;;;;;;;7.22;2.60;;;24.30;29.80;;;;;;5078423;28;20039;-58
2023/07/07 10:12:04;;;;;;;5.90;2.10;;;24.40;33.50;;;;;;5076061;28;20048;-58
2023/07/07 10:14:31;;;;;;;5.43;2.35;;;24.60;33.50;;;;;;5078505;28;20048;-58
2023/07/07 10:17:05;;;;;;;8.90;2.45;;;24.60;30.30;;;;;;5077184;28;20120;-58
2023/07/07 10:19:44;;;;;;;5.60;2.45;;;24.60;30.00;;;;;;5077887;28;20084;-59
2023/07/07 10:22:14;;;;;;;5.78;2.40;;;24.60;28.10;;;;;;5075849;28;20054;-58
2023/07/07 10:24:41;;;;;;;6.95;2.50;;;24.70;28.10;;;;;;5076782;28;20056;-58
2023/07/07 10:27:12;;;;;;;6.60;2.38;;;24.80;30.00;;;;;;5078267;28;20037;-58
2023/07/07 10:29:40;;;;;;;7.70;2.33;;;24.80;27.00;;;;;;5076398;28;20052;-58
2023/07/07 10:32:18;;;;;;;6.43;2.50;;;24.80;30.10;;;;;;5077979;28;20045;-58
2023/07/07 10:34:52;;;;;;;5.20;1.98;;;24.90;28.70;;;;;;5077509;28;20037;-58
2023/07/07 10:37:24;;;;;;;6.05;2.50;;;25.00;28.40;;;;;;5077606;28;20101;-58
2023/07/07 10:39:55;;;;;;;6.35;2.20;;;25.00;27.10;;;;;;5078087;28;20402;-58
2023/07/07 10:42:23;;;;;;;7.50;2.67;;;25.00;26.60;;;;;;5075332;28;20051;-58
2023/07/07 10:44:54;;;;;;;5.85;2.33;;;25.10;28.20;;;;;;5077961;28;20036;-59
2023/07/07 10:47:34;;;;;;;6.70;2.55;;;25.00;26.50;;;;;;5076318;28;20048;-58
2023/07/07 10:50:01;;;;;;;6.13;2.25;;;25.30;27.70;;;;;;5076638;28;20047;-58
2023/07/07 10:53:02;;;;;;;6.88;2.88;;;25.20;27.80;;;;;;5069779;28;20048;-58
2023/07/07 10:55:32;;;;;;;7.05;2.55;;;25.20;24.00;;;;;;5065478;28;20045;-58
2023/07/07 10:58:27;;;;;;;7.50;2.92;;;25.10;25.90;;;;;;5057524;28;20059;-59
2023/07/07 11:01:14;;;;;;;7.53;2.65;;;25.00;27.90;;;;;;5064247;28;20049;-57
2023/07/07 11:04:09;;;;;;;5.78;2.40;;;25.10;21.40;;;;;;5068651;28;20470;-58
2023/07/07 11:06:47;;;;;;;5.97;2.53;;;25.20;23.00;;;;;;5067367;28;20148;-59
2023/07/07 11:09:26;;;;;;;6.35;2.40;;;25.20;25.50;;;;;;5073391;28;20448;-58
2023/07/07 11:12:17;;;;;;;7.15;2.58;;;25.30;24.00;;;;;;5075502;28;20069;-58
2023/07/07 11:15:06;;;;;;;6.80;2.35;;;25.30;21.30;;;;;;5077375;28;20090;-58
2023/07/07 11:18:05;;;;;;;6.43;2.63;;;25.40;22.50;;;;;;5077291;28;20118;-59
2023/07/07 11:21:08;;;;;;;6.90;2.53;;;25.40;23.10;;;;;;5075973;28;20075;-58
2023/07/07 11:24:02;;;;;;;6.53;2.58;;;25.40;23.40;;;;;;5077706;28;20071;-59
2023/07/07 11:27:05;;;;;;;6.13;2.40;;;25.30;22.60;;;;;;5076892;28;20059;-58
2023/07/07 11:29:58;;;;;;;6.82;2.53;;;25.40;21.80;;;;;;5075900;28;20040;-58
2023/07/07 11:32:42;;;;;;;5.22;2.30;;;25.60;25.00;;;;;;5073562;28;20049;-59
2023/07/07 11:35:17;;;;;;;5.10;2.20;;;25.70;23.90;;;;;;5061186;28;20124;-59
2023/07/07 11:38:04;;;;;;;5.07;2.40;;;25.70;22.30;;;;;;5061376;28;20049;-58
2023/07/07 11:40:52;;;;;;;6.75;2.40;;;25.80;21.90;;;;;;5061179;28;20166;-59
2023/07/07 11:43:38;;;;;;;6.60;2.47;;;25.90;22.20;;;;;;5063039;28;20075;-59
2023/07/07 11:46:29;;;;;;;6.82;3.08;;;25.80;21.10;;;;;;5062633;28;20056;-59
2023/07/07 11:49:06;;;;;;;7.10;2.42;;;25.90;19.80;;;;;;5063350;28;20124;-59
2023/07/07 11:51:49;;;;;;;6.50;2.50;;;25.90;21.50;;;;;;5059844;28;20051;-58
2023/07/07 11:54:15;;;;;;;7.45;2.67;;;26.00;20.30;;;;;;5063032;28;20484;-59
2023/07/07 11:57:09;;;;;;;7.05;2.40;;;26.00;19.70;;;;;;5062510;28;20369;-58
2023/07/07 11:59:46;;;;;;;5.03;2.22;;;26.20;20.00;;;;;;5061497;28;20041;-59
2023/07/07 12:02:22;;;;;;;5.53;2.33;;;26.30;22.60;;;;;;5063231;28;20630;-58
2023/07/07 12:04:50;;;;;;;6.20;2.45;;;26.10;20.80;;;;;;5065973;28;20100;-58
2023/07/07 12:07:39;;;;;;;6.28;2.58;;;26.10;19.60;;;;;;5073553;28;20091;-58
2023/07/07 12:10:32;;;;;;;6.95;3.03;;;26.00;16.60;;;;;;5071676;28;20037;-59
2023/07/07 12:13:10;;;;;;;7.25;2.65;;;26.10;19.80;;;;;;5061523;28;20080;-58
2023/07/07 12:15:40;;;;;;;8.75;2.90;;;26.10;20.30;;;;;;5062023;28;20047;-59
2023/07/07 12:18:37;;;;;;;6.80;2.80;;;26.00;18.00;;;;;;5065800;28;20060;-59
2023/07/07 12:21:24;;;;;;;5.28;2.30;;;26.20;19.30;;;;;;5058632;28;20057;-58
2023/07/07 12:24:02;;;;;;;6.82;2.47;;;26.10;18.00;;;;;;5065603;28;20048;-58
2023/07/07 12:26:33;;;;;;;6.40;2.58;;;26.20;16.70;;;;;;5065237;28;20079;-58
2023/07/07 12:29:02;;;;;;;7.47;2.97;;;26.30;18.40;;;;;;5065172;28;20063;-58
2023/07/07 12:31:29;;;;;;;7.55;2.60;;;26.50;20.20;;;;;;5067284;28;20048;-59
2023/07/07 12:33:55;;;;;;;5.22;2.45;;;26.50;19.50;;;;;;5064020;28;20044;-60
2023/07/07 12:36:28;;;;;;;6.20;2.38;;;26.50;17.60;;;;;;5074110;28;20125;-59
2023/07/07 12:38:59;;;;;;;6.55;2.47;;;26.60;16.20;;;;;;5057864;28;20108;-58
2023/07/07 12:41:27;;;;;;;7.53;2.60;;;26.70;16.10;;;;;;5062848;28;20036;-57
2023/07/07 12:43:57;;;;;;;7.28;2.33;;;26.70;16.40;;;;;;5061041;28;20060;-57
2023/07/07 12:46:36;;;;;;;7.10;2.50;;;26.70;16.80;;;;;;5059737;28;20064;-57
2023/07/07 12:49:19;;;;;;;6.65;2.60;;;26.70;15.20;;;;;;5072655;28;20080;-57
2023/07/07 12:51:45;;;;;;;6.75;2.50;;;26.60;17.30;;;;;;5072164;28;20045;-56
2023/07/07 12:54:35;;;;;;;6.07;2.40;;;26.60;17.70;;;;;;5064089;28;20041;-57
2023/07/07 12:57:18;;;;;;;6.20;2.25;;;26.80;19.00;;;;;;5058094;28;20064;-57
2023/07/07 12:59:44;;;;;;;6.18;2.70;;;26.80;18.90;;;;;;5058262;28;20052;-57
2023/07/07 13:02:19;;;;;;;5.75;2.55;;;26.80;18.20;;;;;;5059879;28;20037;-57